createdAt,value
2019-01-06T00:04:22.696Z,13.74
2019-01-06T00:09:30.393Z,15.04
2019-01-06T00:14:38.105Z,17.65
2019-01-06T00:19:45.745Z,16.71
2019-01-06T00:24:53.457Z,14.39
2019-01-06T00:30:03.065Z,14.70
2019-01-06T00:35:08.808Z,14.62
2019-01-06T00:40:16.494Z,14.47
2019-01-06T00:45:24.149Z,15.95
2019-01-06T00:50:31.818Z,15.87
2019-01-06T00:55:39.543Z,19.19
2019-01-06T01:00:47.305Z,18.07
2019-01-06T01:05:55.120Z,14.90
2019-01-06T01:11:02.832Z,14.60
2019-01-06T01:16:10.601Z,14.96
2019-01-06T01:21:18.267Z,15.77
2019-01-06T01:26:26.298Z,15.95
2019-01-06T01:31:33.924Z,15.76
2019-01-06T01:36:41.649Z,16.40
2019-01-06T01:41:49.305Z,19.51
2019-01-06T01:46:57.128Z,16.11
2019-01-06T01:52:04.764Z,15.51
2019-01-06T01:57:12.455Z,15.67
2019-01-06T02:02:20.097Z,15.84
2019-01-06T02:07:27.823Z,15.99
2019-01-06T02:12:35.701Z,16.19
2019-01-06T02:17:43.610Z,16.26
2019-01-06T02:22:51.341Z,17.24
2019-01-06T02:27:58.969Z,17.47
2019-01-06T02:33:06.681Z,17.54
2019-01-06T02:38:14.329Z,17.15
2019-01-06T02:43:22.221Z,17.84
2019-01-06T02:48:29.853Z,17.86
2019-01-06T02:53:37.493Z,18.36
2019-01-06T02:58:45.109Z,21.58
2019-01-06T03:03:52.962Z,17.88
2019-01-06T03:09:00.632Z,17.02
2019-01-06T03:14:08.499Z,17.62
2019-01-06T03:19:16.239Z,21.30
2019-01-06T03:24:23.896Z,20.77
2019-01-06T03:29:32.145Z,20.23
2019-01-06T03:34:40.005Z,16.38
2019-01-06T03:39:47.757Z,20.94
2019-01-06T03:44:55.811Z,19.51
2019-01-06T03:50:03.376Z,16.12
2019-01-06T03:55:11.043Z,16.69
2019-01-06T04:00:18.694Z,16.95
2019-01-06T04:05:26.334Z,16.51
2019-01-06T04:10:34.325Z,19.63
2019-01-06T04:15:41.978Z,15.35
2019-01-06T04:20:49.649Z,19.11
2019-01-06T04:25:57.308Z,14.69
2019-01-06T04:31:05.028Z,18.85
2019-01-06T04:36:12.646Z,18.47
2019-01-06T04:41:20.313Z,19.30
2019-01-06T04:46:27.944Z,15.33
2019-01-06T04:51:35.665Z,15.96
2019-01-06T04:56:43.282Z,16.52
2019-01-06T05:01:50.945Z,16.50
2019-01-06T05:06:58.598Z,16.33
2019-01-06T05:12:06.485Z,17.40
2019-01-06T05:17:14.137Z,17.56
2019-01-06T05:22:21.777Z,16.85
2019-01-06T05:27:29.458Z,20.44
2019-01-06T05:32:37.135Z,15.88
2019-01-06T05:37:45.066Z,16.32
2019-01-06T05:42:52.774Z,17.14
2019-01-06T05:48:00.513Z,20.02
2019-01-06T05:53:08.547Z,16.34
2019-01-06T05:58:16.205Z,16.23
2019-01-06T06:03:23.906Z,20.32
2019-01-06T06:08:31.630Z,16.30
2019-01-06T06:13:39.245Z,20.76
2019-01-06T06:18:47.219Z,20.66
2019-01-06T06:23:55.016Z,16.76
2019-01-06T06:29:02.705Z,17.73
2019-01-06T06:34:10.448Z,17.78
2019-01-06T06:39:18.523Z,18.12
2019-01-06T06:44:26.212Z,18.43
2019-01-06T06:49:33.878Z,18.75
2019-01-06T06:54:41.520Z,22.94
2019-01-06T06:59:49.233Z,18.04
2019-01-06T07:04:57.145Z,18.13
2019-01-06T07:10:05.003Z,18.85
2019-01-06T07:15:12.909Z,22.13
2019-01-06T07:20:20.645Z,21.83
2019-01-06T07:25:28.291Z,16.21
2019-01-06T07:30:36.018Z,16.53
2019-01-06T07:35:43.676Z,19.98
2019-01-06T07:40:51.417Z,17.13
2019-01-06T07:45:59.085Z,17.13
2019-01-06T07:51:06.767Z,16.82
2019-01-06T07:56:14.408Z,16.67
2019-01-06T08:01:22.323Z,17.44
2019-01-06T08:06:30.249Z,17.48
2019-01-06T08:11:37.994Z,18.60
2019-01-06T08:16:45.913Z,16.75
2019-01-06T08:21:53.660Z,16.76
2019-01-06T08:27:01.359Z,16.55
2019-01-06T08:32:09.053Z,16.65
2019-01-06T08:37:17.003Z,15.48
2019-01-06T08:42:24.589Z,16.13
2019-01-06T08:47:32.575Z,16.22
2019-01-06T08:52:40.362Z,19.79
2019-01-06T08:57:47.985Z,16.21
2019-01-06T09:02:55.741Z,16.77
2019-01-06T09:08:03.385Z,16.38
2019-01-06T09:13:11.411Z,16.58
2019-01-06T09:18:19.349Z,16.90
2019-01-06T09:23:27.280Z,17.28
2019-01-06T09:28:34.993Z,16.49
2019-01-06T09:33:42.980Z,16.71
2019-01-06T09:38:50.637Z,17.07
2019-01-06T09:43:59.244Z,19.55
2019-01-06T09:49:06.908Z,14.94
2019-01-06T09:54:14.551Z,14.78
2019-01-06T09:59:22.193Z,11.00
2019-01-06T10:04:35.007Z,9.21
2019-01-06T10:09:37.097Z,8.42
2019-01-06T10:14:44.854Z,7.87
2019-01-06T10:19:52.490Z,6.90
2019-01-06T10:25:00.191Z,7.03
2019-01-06T10:30:07.762Z,6.24
2019-01-06T10:35:15.544Z,5.38
2019-01-06T10:40:23.172Z,4.45
2019-01-06T10:45:30.936Z,4.26
2019-01-06T10:50:38.566Z,4.62
2019-01-06T10:55:46.329Z,4.32
2019-01-06T11:00:53.957Z,5.34
2019-01-06T11:06:01.905Z,6.39
2019-01-06T11:11:09.613Z,6.16
2019-01-06T11:16:17.455Z,6.88
2019-01-06T11:21:25.143Z,8.19
2019-01-06T11:26:32.785Z,8.45
2019-01-06T11:31:40.431Z,10.37
2019-01-06T11:36:48.101Z,9.98
2019-01-06T11:41:55.728Z,10.12
2019-01-06T11:47:03.452Z,12.50
2019-01-06T11:52:11.122Z,12.05
2019-01-06T11:57:18.833Z,9.33
2019-01-06T12:02:26.531Z,9.42
2019-01-06T12:07:34.270Z,9.15
2019-01-06T12:12:41.914Z,8.80
2019-01-06T12:17:49.559Z,10.48
2019-01-06T12:22:57.209Z,9.61
2019-01-06T12:28:04.832Z,9.96
2019-01-06T12:33:12.659Z,9.02
2019-01-06T12:38:20.426Z,8.92
2019-01-06T12:43:28.109Z,9.43
2019-01-06T12:48:35.878Z,11.93
2019-01-06T12:53:43.501Z,10.97
2019-01-06T12:58:51.338Z,10.31
2019-01-06T13:03:58.958Z,10.65
2019-01-06T13:09:06.768Z,10.90
2019-01-06T13:14:14.429Z,11.57
2019-01-06T13:19:22.077Z,11.28
2019-01-06T13:24:29.776Z,10.99
2019-01-06T13:29:37.428Z,10.14
2019-01-06T13:34:45.137Z,10.22
2019-01-06T13:39:52.756Z,10.92
2019-01-06T13:45:00.396Z,10.49
2019-01-06T13:50:08.027Z,11.34
2019-01-06T13:55:15.728Z,11.51
2019-01-06T14:00:23.349Z,9.92
2019-01-06T14:05:31.060Z,10.61
2019-01-06T14:10:38.663Z,10.44
2019-01-06T14:15:46.350Z,9.38
2019-01-06T14:20:53.952Z,8.74
2019-01-06T14:26:01.685Z,8.97
2019-01-06T14:31:09.317Z,8.44
2019-01-06T14:36:16.975Z,8.64
2019-01-06T14:41:24.594Z,7.68
2019-01-06T14:46:32.282Z,8.22
2019-01-06T14:51:39.890Z,7.90
2019-01-06T14:56:47.688Z,8.89
2019-01-06T15:01:55.304Z,7.51
2019-01-06T15:07:02.929Z,8.11
2019-01-06T15:12:10.542Z,11.51
2019-01-06T15:17:18.285Z,12.14
2019-01-06T15:22:25.889Z,12.80
2019-01-06T15:27:33.780Z,11.53
2019-01-06T15:32:41.438Z,13.89
2019-01-06T15:37:49.151Z,13.92
2019-01-06T15:42:56.772Z,12.22
2019-01-06T15:48:04.445Z,14.70
2019-01-06T15:53:12.127Z,13.83
2019-01-06T15:58:19.800Z,14.39
2019-01-06T16:03:27.430Z,12.39
2019-01-06T16:08:35.121Z,13.50
2019-01-06T16:13:42.826Z,13.45
2019-01-06T16:18:50.418Z,16.34
2019-01-06T16:23:58.185Z,14.03
2019-01-06T16:29:05.797Z,14.51
2019-01-06T16:34:13.441Z,14.70
2019-01-06T16:39:21.098Z,15.55
2019-01-06T16:44:28.773Z,18.34
2019-01-06T16:49:36.441Z,15.63
2019-01-06T16:54:44.085Z,20.04
2019-01-06T16:59:51.737Z,16.84
2019-01-06T17:05:02.443Z,17.92
2019-01-06T17:10:00.087Z,21.42
2019-01-06T17:15:07.715Z,18.34
2019-01-06T17:20:15.352Z,19.25
2019-01-06T17:25:23.045Z,23.78
2019-01-06T17:30:30.697Z,20.23
2019-01-06T17:35:38.445Z,20.79
2019-01-06T17:40:46.096Z,21.29
2019-01-06T17:45:53.815Z,22.28
2019-01-06T17:51:01.561Z,23.83
2019-01-06T17:56:09.204Z,23.63
2019-01-06T18:01:16.985Z,23.24
2019-01-06T18:06:24.629Z,27.86
2019-01-06T18:11:32.306Z,23.80
2019-01-06T18:16:39.956Z,28.27
2019-01-06T18:21:47.591Z,23.32
2019-01-06T18:26:55.269Z,24.22
2019-01-06T18:32:02.936Z,24.51
2019-01-06T18:37:10.589Z,25.86
2019-01-06T18:42:18.660Z,30.71
2019-01-06T18:47:26.345Z,26.04
2019-01-06T18:52:34.063Z,27.08
2019-01-06T18:57:41.748Z,26.83
2019-01-06T19:02:49.445Z,32.51
2019-01-06T19:07:57.248Z,28.80
2019-01-06T19:13:04.957Z,27.24
2019-01-06T19:18:12.660Z,28.55
2019-01-06T19:23:20.356Z,27.71
2019-01-06T19:28:28.047Z,27.86
2019-01-06T19:33:35.744Z,32.51
2019-01-06T19:38:43.377Z,28.87
2019-01-06T19:43:51.066Z,34.17
2019-01-06T19:48:58.737Z,29.21
2019-01-06T19:54:06.509Z,29.46
2019-01-06T19:59:14.135Z,29.97
2019-01-06T20:04:21.933Z,31.80
2019-01-06T20:09:29.605Z,31.50
2019-01-06T20:14:37.341Z,32.24
2019-01-06T20:19:44.989Z,37.95
2019-01-06T20:24:52.674Z,31.01
2019-01-06T20:30:00.299Z,30.83
2019-01-06T20:35:08.010Z,31.35
2019-01-06T20:40:15.614Z,37.81
2019-01-06T20:45:23.328Z,31.17
2019-01-06T20:50:30.965Z,31.73
2019-01-06T20:55:38.677Z,37.11
2019-01-06T21:00:46.309Z,31.25
2019-01-06T21:05:53.932Z,36.47
2019-01-06T21:11:01.838Z,36.54
2019-01-06T21:16:09.521Z,31.72
2019-01-06T21:21:17.188Z,30.94
2019-01-06T21:26:24.812Z,37.49
2019-01-06T21:31:32.448Z,31.19
2019-01-06T21:36:40.130Z,32.05
2019-01-06T21:41:47.811Z,37.95
2019-01-06T21:46:55.466Z,33.27
2019-01-06T21:52:03.161Z,32.72
2019-01-06T21:57:10.781Z,39.33
2019-01-06T22:02:18.488Z,38.14
2019-01-06T22:07:26.141Z,32.34
2019-01-06T22:12:33.833Z,33.03
2019-01-06T22:17:41.464Z,38.58
2019-01-06T22:22:49.233Z,32.70
2019-01-06T22:27:56.869Z,32.31
2019-01-06T22:33:04.524Z,32.06
2019-01-06T22:38:12.189Z,32.76
2019-01-06T22:43:19.892Z,33.21
2019-01-06T22:48:27.514Z,33.50
2019-01-06T22:53:35.190Z,32.81
2019-01-06T22:58:42.841Z,33.53
2019-01-06T23:03:50.592Z,33.02
2019-01-06T23:08:58.248Z,33.90
2019-01-06T23:14:05.942Z,34.27
2019-01-06T23:19:13.611Z,34.63
2019-01-06T23:24:21.625Z,34.24
2019-01-06T23:29:29.311Z,33.17
2019-01-06T23:34:36.989Z,34.38
2019-01-06T23:39:44.691Z,33.57
2019-01-06T23:44:52.323Z,40.21
2019-01-06T23:50:00.012Z,33.10
2019-01-06T23:55:07.690Z,40.43
